Chicago, Illinois
Traffic Map
Current Weather Conditions
Chicago, Illinois
Broken Clouds
Broken Clouds
70°
Feels Like: 70°
Wind Chill: 70° Ceiling: 25000
Heat Index: 70° Visibility: 10mi
Dew Point: 46° Wind: 7mph
Humidity: 42% Direction: 90° (E)
Pressure: 30.1in Gusts: 0mph
Raw Report DataKMDW 250051Z 09006KT 10SM BKN250 21/08 A3010 RMK AO2 SLP184 T02110078
Traffic Incident Summary
Active as of:
Severity:
Category:
InformationThere was an issue retrieving the traffic information for this location. Please try a different location or try again shortly.
Advertisements
Track Severe Weather on mobile